Time;durP1;ratioP1;P1;durP2;ratioP2;P2;SDS_P1;SDS_P2;PMS_P1;PMS_P2;Temp;Humidity;BMP_temperature;BMP_pressure;BME280_temperature;BME280_humidity;BME280_pressure;Samples;Min_cycle;Max_cycle;Signal;HPM_P1;HPM_P2
2021/04/09 00:02:24;;;;;;;16.27;6.20;;;;;;;5.00;84.67;99009.84;5105293;28;20044;-64
2021/04/09 00:04:50;;;;;;;23.02;6.63;;;;;;;4.98;85.17;99009.84;5105149;28;20059;-63
2021/04/09 00:07:15;;;;;;;24.65;5.95;;;;;;;4.96;85.19;98991.84;5105253;28;20020;-64
2021/04/09 00:09:41;;;;;;;16.38;4.72;;;;;;;4.96;85.18;99004.72;5105414;28;20051;-62
2021/04/09 00:12:07;;;;;;;23.92;6.55;;;;;;;4.90;85.64;98996.19;5105222;28;20023;-62
2021/04/09 00:14:33;;;;;;;18.25;7.72;;;;;;;4.88;85.71;98975.63;5104741;28;20046;-62
2021/04/09 00:16:58;;;;;;;15.65;5.28;;;;;;;4.90;85.83;98962.75;5105083;28;20025;-63
2021/04/09 00:19:25;;;;;;;18.45;5.82;;;;;;;4.87;85.89;98981.66;5104865;28;20028;-60
2021/04/09 00:21:51;;;;;;;11.15;4.63;;;;;;;4.94;85.95;98979.84;5104919;28;20081;-61
2021/04/09 00:24:16;;;;;;;25.88;7.50;;;;;;;4.92;86.02;98969.56;5104719;28;20024;-61
2021/04/09 00:26:42;;;;;;;18.67;5.10;;;;;;;5.00;85.85;98961.78;5104899;28;20012;-60
2021/04/09 00:29:08;;;;;;;13.30;6.13;;;;;;;4.98;85.79;98960.13;5104430;28;20101;-60
2021/04/09 00:31:34;;;;;;;35.00;11.10;;;;;;;4.99;85.82;98964.38;5104634;28;20153;-61
2021/04/09 00:34:00;;;;;;;25.25;7.63;;;;;;;5.02;85.79;98954.94;5104761;28;20217;-65
2021/04/09 00:36:26;;;;;;;20.42;6.63;;;;;;;5.06;85.65;98940.31;5104714;28;20087;-62
2021/04/09 00:38:51;;;;;;;28.73;7.97;;;;;;;5.02;85.47;98954.06;5104564;28;20035;-61
2021/04/09 00:41:17;;;;;;;14.25;6.05;;;;;;;5.10;85.27;98928.28;5104117;28;20035;-62
2021/04/09 00:43:46;;;;;;;28.67;9.68;;;;;;;5.01;85.40;98937.78;5104089;28;20016;-61
2021/04/09 00:46:12;;;;;;;21.55;5.97;;;;;;;5.13;85.10;98930.84;5104535;28;20055;-61
2021/04/09 00:48:38;;;;;;;24.23;7.63;;;;;;;5.16;84.73;98936.78;5104376;28;20024;-61
2021/04/09 00:51:05;;;;;;;24.13;8.68;;;;;;;5.15;84.72;98927.38;5104416;28;20016;-62
2021/04/09 00:53:31;;;;;;;18.13;5.97;;;;;;;5.21;84.40;98929.00;5104263;28;20030;-61
2021/04/09 00:56:01;;;;;;;33.47;8.43;;;;;;;5.12;84.33;98895.66;5104415;28;20039;-62
2021/04/09 00:58:27;;;;;;;18.98;5.72;;;;;;;5.21;84.26;98911.88;5104027;28;20028;-61
2021/04/09 01:00:52;;;;;;;21.45;7.13;;;;;;;5.21;83.65;98888.72;5104183;28;20047;-62
2021/04/09 01:03:18;;;;;;;21.70;6.30;;;;;;;5.21;83.89;98899.00;5104093;28;20544;-62
2021/04/09 01:05:44;;;;;;;25.52;7.70;;;;;;;5.23;83.92;98911.84;5085989;28;20016;-62
2021/04/09 01:08:09;;;;;;;13.25;5.35;;;;;;;5.27;83.49;98880.06;5104034;28;20032;-62
2021/04/09 01:10:35;;;;;;;26.17;7.68;;;;;;;5.30;83.42;98892.88;5104331;28;20027;-62
2021/04/09 01:13:00;;;;;;;19.55;6.57;;;;;;;5.31;83.21;98896.31;5103916;28;20082;-62
2021/04/09 01:15:26;;;;;;;33.95;7.85;;;;;;;5.34;82.97;98870.53;5103683;28;20086;-62
2021/04/09 01:17:59;;;;;;;20.98;6.40;;;;;;;5.32;82.77;98870.56;5103983;28;20056;-61
2021/04/09 01:20:34;;;;;;;23.55;7.25;;;;;;;5.26;82.80;98855.19;5104004;28;20069;-62
2021/04/09 01:23:36;;;;;;;30.75;7.10;;;;;;;5.28;82.56;98855.19;5103682;28;20031;-62
2021/04/09 01:26:39;;;;;;;19.55;5.82;;;;;;;5.31;82.44;98850.00;5103877;28;20028;-60
2021/04/09 01:29:10;;;;;;;21.33;5.80;;;;;;;5.26;82.47;98831.19;5103451;28;20063;-61
2021/04/09 01:31:43;;;;;;;32.90;7.00;;;;;;;5.20;82.16;98829.53;5103680;28;20377;-61
2021/04/09 01:34:09;;;;;;;34.83;7.90;;;;;;;5.19;82.29;98828.69;5103703;28;20257;-61
2021/04/09 01:36:44;;;;;;;18.45;5.53;;;;;;;5.25;82.43;98812.34;5103991;28;20024;-63
2021/04/09 01:39:21;;;;;;;17.65;5.20;;;;;;;5.26;82.12;98814.03;5103967;28;20294;-63
2021/04/09 01:41:50;;;;;;;42.50;7.03;;;;;;;5.21;82.31;98801.22;5103471;28;20055;-63
2021/04/09 01:44:20;;;;;;;13.82;4.53;;;;;;;5.21;82.16;98818.38;5103368;28;20442;-62
2021/04/09 01:46:47;;;;;;;26.45;8.95;;;;;;;5.14;82.41;98803.91;5103611;28;20024;-62
2021/04/09 01:49:13;;;;;;;29.52;8.95;;;;;;;5.14;82.60;98809.91;5103481;28;20038;-63
2021/04/09 01:51:40;;;;;;;32.05;9.45;;;;;;;5.12;82.60;98796.19;5105788;28;20070;-64
2021/04/09 01:54:07;;;;;;;44.63;7.93;;;;;;;5.08;82.93;98777.38;5107792;28;20027;-62
2021/04/09 01:56:35;;;;;;;28.73;7.85;;;;;;;5.03;83.03;98780.88;5107944;28;20030;-62
2021/04/09 01:59:01;;;;;;;36.95;8.40;;;;;;;5.07;83.06;98787.66;5107430;28;20027;-61
2021/04/09 02:01:27;;;;;;;13.80;5.03;;;;;;;5.01;83.12;98773.19;5107637;28;20107;-61
2021/04/09 02:03:54;;;;;;;21.60;7.45;;;;;;;5.02;83.44;98761.16;5107713;28;20031;-62
2021/04/09 02:06:20;;;;;;;21.30;6.00;;;;;;;4.96;83.57;98760.38;5107818;28;20032;-62
2021/04/09 02:08:46;;;;;;;39.60;9.52;;;;;;;4.94;83.61;98750.97;5107570;28;20052;-62
2021/04/09 02:11:11;;;;;;;26.60;8.43;;;;;;;4.94;83.57;98756.97;5107600;28;20051;-61
2021/04/09 02:13:38;;;;;;;20.17;6.28;;;;;;;4.94;83.72;98767.25;5107104;28;20012;-61
2021/04/09 02:16:04;;;;;;;20.52;6.63;;;;;;;4.94;83.88;98756.97;5107472;28;20022;-63
2021/04/09 02:18:30;;;;;;;27.33;6.63;;;;;;;4.94;84.13;98746.69;5107434;28;20028;-63
2021/04/09 02:20:58;;;;;;;41.53;10.07;;;;;;;4.94;84.17;98745.81;5089102;28;20024;-62
2021/04/09 02:23:23;;;;;;;42.72;9.35;;;;;;;4.92;84.22;98727.00;5107002;28;20040;-61
2021/04/09 02:25:49;;;;;;;27.55;6.93;;;;;;;4.89;84.14;98730.44;5107367;28;20043;-62
2021/04/09 02:28:14;;;;;;;40.17;7.75;;;;;;;4.92;84.40;98716.72;5107022;28;20527;-62
2021/04/09 02:30:40;;;;;;;25.40;8.30;;;;;;;4.94;84.18;98715.81;5106862;28;20036;-63
2021/04/09 02:33:05;;;;;;;17.85;4.68;;;;;;;4.92;84.22;98668.69;5106890;28;20056;-64
2021/04/09 02:35:31;;;;;;;19.73;5.18;;;;;;;4.92;84.35;98712.41;5107175;28;20026;-62
2021/04/09 02:37:56;;;;;;;27.77;6.18;;;;;;;4.92;84.39;98686.69;5107067;28;20485;-62
2021/04/09 02:40:32;;;;;;;30.70;8.07;;;;;;;4.93;84.25;98687.53;5106970;28;20016;-62
2021/04/09 02:42:58;;;;;;;37.33;7.88;;;;;;;4.92;84.15;98684.13;5106670;28;20043;-62
2021/04/09 02:45:25;;;;;;;30.80;7.43;;;;;;;4.93;84.35;98672.13;5106556;28;20028;-62
2021/04/09 02:47:52;;;;;;;25.75;5.32;;;;;;;4.94;84.28;98655.81;5106820;28;20028;-63
2021/04/09 02:50:48;;;;;;;14.30;4.88;;;;;;;4.94;84.31;98666.94;5107005;28;20077;-63
2021/04/09 02:53:20;;;;;;;32.10;5.80;;;;;;;4.86;84.57;98668.75;5106613;28;20050;-62
2021/04/09 02:55:48;;;;;;;35.72;7.85;;;;;;;4.88;84.78;98672.19;5106702;28;20026;-62
2021/04/09 02:58:15;;;;;;;15.35;4.15;;;;;;;4.88;84.87;98646.47;5106809;28;20107;-67
2021/04/09 03:00:46;;;;;;;22.15;5.38;;;;;;;4.87;85.18;98652.50;5106263;28;20049;-62
2021/04/09 03:03:15;;;;;;;38.15;6.70;;;;;;;4.87;85.10;98644.78;5105779;28;20035;-62
2021/04/09 03:05:41;;;;;;;18.70;5.68;;;;;;;4.86;85.24;98640.47;5106488;28;20392;-63
2021/04/09 03:08:07;;;;;;;40.13;7.78;;;;;;;4.88;85.24;98632.75;5106487;28;20024;-64
2021/04/09 03:10:33;;;;;;;29.30;6.35;;;;;;;4.87;85.28;98639.63;5106417;28;20054;-63
2021/04/09 03:12:58;;;;;;;39.08;6.43;;;;;;;4.80;85.34;98633.72;5106162;28;20240;-63
2021/04/09 03:15:28;;;;;;;24.58;6.55;;;;;;;4.84;85.67;98619.06;5106062;28;20055;-63
2021/04/09 03:18:05;;;;;;;10.95;2.75;;;;;;;4.83;85.73;98628.53;5106246;28;20047;-62
2021/04/09 03:20:31;;;;;;;18.98;5.03;;;;;;;4.76;86.22;98628.63;5106322;28;20024;-62
2021/04/09 03:22:56;;;;;;;30.83;5.85;;;;;;;4.83;86.02;98625.97;5105817;28;20054;-62
2021/04/09 03:25:21;;;;;;;24.33;5.30;;;;;;;4.79;86.16;98602.88;5106057;28;20361;-62
2021/04/09 03:27:47;;;;;;;19.90;4.35;;;;;;;4.82;85.95;98626.81;5105966;28;20016;-61
2021/04/09 03:30:14;;;;;;;29.52;6.03;;;;;;;4.76;86.30;98606.31;5105374;28;20047;-61
2021/04/09 03:32:39;;;;;;;25.30;6.10;;;;;;;4.77;86.33;98607.19;5105818;28;20028;-62
2021/04/09 03:35:06;;;;;;;18.95;4.97;;;;;;;4.72;86.60;98596.97;5105976;28;20031;-61
2021/04/09 03:37:31;;;;;;;32.38;9.30;;;;;;;4.73;86.62;98603.78;5105828;28;20034;-62
2021/04/09 03:39:56;;;;;;;31.33;7.25;;;;;;;4.77;86.65;98599.47;5105733;28;20056;-62
2021/04/09 03:42:22;;;;;;;25.92;5.90;;;;;;;4.76;86.68;98603.75;5105660;28;20021;-62
2021/04/09 03:44:47;;;;;;;15.77;4.47;;;;;;;4.74;86.66;98599.50;5105301;28;20381;-62
2021/04/09 03:47:13;;;;;;;17.08;6.55;;;;;;;4.78;86.81;98598.59;5105792;28;20028;-62
2021/04/09 03:49:38;;;;;;;25.02;5.53;;;;;;;4.70;86.73;98596.13;5105491;28;20082;-61
2021/04/09 03:52:04;;;;;;;19.27;5.40;;;;;;;4.70;87.12;98591.84;5105493;28;20102;-62
2021/04/09 03:54:29;;;;;;;34.78;6.72;;;;;;;4.68;87.26;98564.47;5105596;28;20031;-63
2021/04/09 03:56:55;;;;;;;24.70;5.75;;;;;;;4.70;87.41;98584.13;5105483;28;20060;-62
2021/04/09 03:59:20;;;;;;;27.92;5.53;;;;;;;4.73;87.51;98595.25;5104983;28;20091;-63
2021/04/09 04:01:46;;;;;;;39.55;8.27;;;;;;;4.79;87.28;98624.28;5105697;28;20075;-62
2021/04/09 04:04:11;;;;;;;12.93;2.80;;;;;;;4.69;85.20;98625.28;5105165;28;20248;-61
2021/04/09 04:06:36;;;;;;;10.95;2.63;;;;;;;4.32;84.21;98624.88;5105261;28;20636;-61
2021/04/09 04:09:02;;;;;;;9.40;2.17;;;;;;;4.04;83.80;98632.03;5105323;28;20031;-62
2021/04/09 04:11:29;;;;;;;9.25;1.95;;;;;;;3.78;84.09;98628.88;5105081;28;20077;-62
2021/04/09 04:13:54;;;;;;;8.30;1.88;;;;;;;3.60;84.50;98624.75;5104416;28;20024;-61
2021/04/09 04:16:20;;;;;;;13.68;2.35;;;;;;;3.44;84.89;98622.31;5104396;28;20043;-61
2021/04/09 04:18:45;;;;;;;4.25;1.05;;;;;;;3.32;85.34;98620.66;5104924;28;20083;-61
2021/04/09 04:21:11;;;;;;;7.07;1.95;;;;;;;3.24;85.85;98611.34;5105006;28;20375;-61
2021/04/09 04:23:36;;;;;;;7.97;1.30;;;;;;;3.21;85.98;98607.94;5104635;28;20035;-61
2021/04/09 04:26:02;;;;;;;2.83;0.85;;;;;;;3.20;86.47;98613.94;5104995;28;20016;-61
2021/04/09 04:28:27;;;;;;;4.10;0.90;;;;;;;3.19;86.49;98608.81;5104849;28;20051;-61
2021/04/09 04:30:56;;;;;;;6.63;1.20;;;;;;;3.18;86.70;98613.09;5104495;28;20108;-64
2021/04/09 04:33:22;;;;;;;5.43;1.20;;;;;;;3.14;86.81;98626.81;5104508;28;20020;-62
2021/04/09 04:35:48;;;;;;;2.40;1.38;;;;;;;3.16;87.14;98614.84;5104836;28;20032;-64
2021/04/09 04:38:14;;;;;;;6.47;1.27;;;;;;;3.08;87.32;98607.16;5104424;28;20022;-61
2021/04/09 04:40:40;;;;;;;1.95;0.80;;;;;;;3.08;87.51;98602.03;5104806;28;20035;-61
2021/04/09 04:43:05;;;;;;;5.03;0.98;;;;;;;3.13;87.42;98612.25;5104201;28;20016;-61
2021/04/09 04:45:31;;;;;;;8.50;1.30;;;;;;;3.11;87.40;98608.88;5104302;28;20042;-61
2021/04/09 04:47:57;;;;;;;3.47;0.88;;;;;;;3.08;87.55;98606.34;5104582;28;20057;-61
2021/04/09 04:50:23;;;;;;;5.95;1.40;;;;;;;3.10;87.70;98602.88;5104380;28;20380;-61
2021/04/09 04:52:48;;;;;;;5.93;0.70;;;;;;;3.11;87.59;98598.63;5104285;28;20058;-63
2021/04/09 04:55:14;;;;;;;8.05;1.42;;;;;;;3.10;87.83;98607.16;5104390;28;20023;-62
2021/04/09 04:57:39;;;;;;;1.95;0.60;;;;;;;3.10;87.92;98615.72;5104452;28;20035;-62
2021/04/09 05:00:05;;;;;;;5.47;2.05;;;;;;;3.13;87.92;98614.81;5103849;28;20053;-64
2021/04/09 05:02:31;;;;;;;5.38;2.10;;;;;;;3.18;87.97;98612.25;5104036;28;20035;-61
2021/04/09 05:04:56;;;;;;;5.65;1.10;;;;;;;3.22;88.05;98619.91;5104277;28;20021;-61
2021/04/09 05:07:21;;;;;;;5.72;1.50;;;;;;;3.29;87.99;98630.13;5103777;28;20024;-62
2021/04/09 05:09:46;;;;;;;6.53;1.35;;;;;;;3.33;88.01;98616.41;5104327;28;20024;-63
2021/04/09 05:12:12;;;;;;;5.43;1.23;;;;;;;3.36;88.15;98618.94;5103933;28;20556;-62
2021/04/09 05:14:38;;;;;;;9.38;1.75;;;;;;;3.40;87.95;98619.78;5103635;28;20020;-62
2021/04/09 05:17:04;;;;;;;12.80;1.83;;;;;;;3.43;87.98;98619.75;5103940;28;20024;-61
2021/04/09 05:19:29;;;;;;;14.75;2.00;;;;;;;3.45;87.84;98624.00;5103886;28;20028;-62
2021/04/09 05:21:55;;;;;;;17.98;1.95;;;;;;;3.45;87.90;98611.16;5085696;28;20046;-61
2021/04/09 05:24:23;;;;;;;5.07;1.65;;;;;;;3.45;87.94;98606.03;5103682;28;20048;-61
2021/04/09 05:26:48;;;;;;;8.05;1.55;;;;;;;3.49;87.82;98618.84;5103711;28;20031;-62
2021/04/09 05:29:13;;;;;;;16.90;2.25;;;;;;;3.49;87.87;98622.28;5103497;28;20052;-61
2021/04/09 05:31:40;;;;;;;16.80;2.85;;;;;;;3.55;87.91;98617.09;5103793;28;20048;-61
2021/04/09 05:34:05;;;;;;;15.25;1.55;;;;;;;3.56;87.98;98617.94;5103668;28;20027;-62
2021/04/09 05:36:30;;;;;;;14.20;3.17;;;;;;;3.60;87.86;98619.59;5103723;28;20080;-61
2021/04/09 05:38:58;;;;;;;5.90;1.77;;;;;;;3.62;88.03;98607.63;5103781;28;20031;-59
2021/04/09 05:41:24;;;;;;;23.45;2.17;;;;;;;3.71;88.05;98606.66;5103386;28;20030;-60
2021/04/09 05:43:49;;;;;;;18.10;2.92;;;;;;;3.81;87.96;98608.31;5103104;28;20088;-60
2021/04/09 05:46:15;;;;;;;20.63;3.90;;;;;;;3.86;87.83;98605.69;5103289;28;20031;-60
2021/04/09 05:48:43;;;;;;;17.48;2.40;;;;;;;3.90;87.77;98594.50;5085248;28;20092;-60
2021/04/09 05:51:08;;;;;;;19.35;3.20;;;;;;;4.00;87.80;98596.97;5103734;28;20024;-60
2021/04/09 05:53:34;;;;;;;11.02;3.05;;;;;;;4.05;87.80;98583.22;5103282;28;20508;-60
2021/04/09 05:56:02;;;;;;;13.93;3.05;;;;;;;4.09;87.36;98579.75;5103694;28;20030;-60
2021/04/09 05:58:27;;;;;;;17.58;2.67;;;;;;;4.07;87.11;98586.59;5103381;28;20020;-59
2021/04/09 06:00:53;;;;;;;28.10;4.80;;;;;;;4.04;87.00;98571.25;5103137;28;20028;-61
2021/04/09 06:03:18;;;;;;;16.20;3.38;;;;;;;4.11;86.68;98590.00;5103248;28;20040;-60
2021/04/09 06:05:44;;;;;;;21.58;3.20;;;;;;;4.12;86.22;98580.59;5103473;28;20026;-60
2021/04/09 06:08:10;;;;;;;19.05;3.60;;;;;;;4.09;86.06;98582.31;5103502;28;20028;-60
2021/04/09 06:10:38;;;;;;;23.40;3.72;;;;;;;4.06;85.63;98584.91;5103461;28;20024;-60
2021/04/09 06:13:04;;;;;;;24.13;3.08;;;;;;;4.06;85.45;98589.19;5103175;28;20091;-60
2021/04/09 06:15:30;;;;;;;21.17;3.20;;;;;;;4.03;85.04;98584.09;5102961;28;20023;-60
2021/04/09 06:17:56;;;;;;;15.18;4.28;;;;;;;3.96;84.99;98570.50;5085001;28;20031;-61
2021/04/09 06:20:22;;;;;;;10.68;2.42;;;;;;;3.99;84.66;98549.91;5103332;28;20015;-62
2021/04/09 06:22:47;;;;;;;14.82;3.45;;;;;;;4.21;85.03;98576.19;5103092;28;20016;-61
2021/04/09 06:25:13;;;;;;;14.75;2.85;;;;;;;4.67;85.16;98566.19;5084824;28;20544;-60
2021/04/09 06:27:46;;;;;;;14.45;3.92;;;;;;;5.31;83.66;98564.38;5103183;28;20054;-64
2021/04/09 06:30:12;;;;;;;15.63;2.60;;;;;;;5.80;81.19;98505.13;5084624;28;20621;-63
2021/04/09 06:32:37;;;;;;;20.27;4.18;;;;;;;6.03;79.16;98560.50;5084806;28;20080;-60
2021/04/09 06:35:03;;;;;;;15.77;3.35;;;;;;;6.44;78.65;98547.69;5084837;28;20020;-62
2021/04/09 06:37:29;;;;;;;12.05;2.72;;;;;;;6.82;76.13;98552.91;5103558;28;20025;-60
2021/04/09 06:39:54;;;;;;;18.85;2.95;;;;;;;7.18;74.40;98545.16;5106798;28;20024;-61
2021/04/09 06:42:20;;;;;;;17.08;3.95;;;;;;;7.58;75.14;98550.19;5106557;28;20150;-61
2021/04/09 06:44:49;;;;;;;11.15;2.30;;;;;;;8.04;73.18;98557.56;5106375;28;20024;-61
2021/04/09 06:47:17;;;;;;;13.95;3.22;;;;;;;8.26;70.88;98554.41;5106892;28;20150;-61
2021/04/09 06:49:42;;;;;;;19.08;3.45;;;;;;;8.43;70.14;98546.97;5106645;28;20024;-61
2021/04/09 06:52:14;;;;;;;24.13;3.78;;;;;;;8.64;69.04;98543.84;5106617;28;20073;-61
2021/04/09 06:54:47;;;;;;;29.92;3.83;;;;;;;8.92;67.65;98543.84;5106738;28;20049;-61
2021/04/09 06:57:13;;;;;;;14.18;2.33;;;;;;;9.39;68.54;98531.13;5106646;28;20024;-61
2021/04/09 06:59:43;;;;;;;13.05;2.80;;;;;;;9.42;62.04;98521.47;5106234;28;20049;-62
2021/04/09 07:02:16;;;;;;;17.75;3.85;;;;;;;9.24;62.55;98535.06;5106148;28;20036;-62
2021/04/09 07:04:44;;;;;;;18.95;3.67;;;;;;;9.03;63.79;98540.88;5106205;28;20487;-63
2021/04/09 07:07:11;;;;;;;15.75;2.92;;;;;;;8.91;62.27;98551.63;5106667;28;20080;-62
2021/04/09 07:09:37;;;;;;;13.68;2.90;;;;;;;8.50;61.25;98539.88;5106489;28;20028;-62
2021/04/09 07:12:03;;;;;;;18.33;4.55;;;;;;;7.85;62.51;98537.44;5106189;28;20480;-61
2021/04/09 07:14:55;;;;;;;11.63;2.83;;;;;;;7.37;62.76;98536.94;5105598;28;20039;-61
2021/04/09 07:17:22;;;;;;;16.38;3.83;;;;;;;7.16;65.14;98551.22;5106309;28;20028;-62
2021/04/09 07:19:48;;;;;;;15.25;3.25;;;;;;;6.80;65.66;98537.44;5106237;28;20024;-61
2021/04/09 07:22:13;;;;;;;17.25;3.35;;;;;;;6.49;67.14;98552.72;5106017;28;20103;-62
2021/04/09 07:24:39;;;;;;;42.30;4.97;;;;;;;6.26;68.21;98543.78;5106075;28;20031;-61
2021/04/09 07:27:04;;;;;;;22.08;4.22;;;;;;;6.05;68.99;98558.78;5106172;28;20016;-61
2021/04/09 07:29:30;;;;;;;27.02;4.00;;;;;;;5.83;70.20;98561.75;5105576;28;20074;-61
2021/04/09 07:31:56;;;;;;;17.25;3.40;;;;;;;5.72;70.89;98548.22;5105894;28;20040;-60
2021/04/09 07:34:21;;;;;;;29.27;4.03;;;;;;;5.65;71.34;98540.63;5105771;28;20020;-62
2021/04/09 07:36:56;;;;;;;17.75;2.90;;;;;;;5.75;71.59;98556.72;5097716;28;20038;-62
2021/04/09 07:39:37;;;;;;;11.88;2.63;;;;;;;5.90;70.63;98559.91;5106049;28;20424;-62
2021/04/09 07:42:06;;;;;;;20.15;4.07;;;;;;;5.95;70.26;98534.91;5105905;28;20020;-61
2021/04/09 07:44:32;;;;;;;13.07;2.60;;;;;;;5.90;69.20;98527.28;5105352;28;20046;-62
2021/04/09 07:47:15;;;;;;;28.58;3.80;;;;;;;5.98;69.04;98559.75;5105811;28;20024;-61
2021/04/09 07:49:41;;;;;;;18.83;3.35;;;;;;;6.07;69.36;98555.31;5105473;28;20483;-63
2021/04/09 07:52:12;;;;;;;21.00;2.60;;;;;;;6.23;68.82;98543.84;5087307;28;20368;-62
2021/04/09 07:54:39;;;;;;;15.10;4.07;;;;;;;6.31;68.27;98553.09;5105711;28;20016;-62
2021/04/09 07:57:05;;;;;;;19.65;4.93;;;;;;;6.23;67.35;98552.41;5105673;28;20016;-62
2021/04/09 07:59:37;;;;;;;17.50;3.20;;;;;;;5.98;67.18;98554.59;5104589;28;20028;-61
2021/04/09 08:02:05;;;;;;;;;;;;;;;5.97;67.06;98588.97;5105547;28;20024;-62
2021/04/09 08:04:42;;;;;;;9.88;2.33;;;;;;;6.48;68.21;98577.69;5105118;28;19923;-63
2021/04/09 08:07:28;;;;;;;12.23;2.03;;;;;;;7.16;66.41;98593.38;5105356;28;20027;-63
2021/04/09 08:09:53;;;;;;;14.30;1.80;;;;;;;7.63;63.52;98561.25;5105221;28;20024;-63
2021/04/09 08:12:33;;;;;;;14.70;2.20;;;;;;;8.06;62.21;98576.47;5105036;28;20024;-62
2021/04/09 08:15:13;;;;;;;7.28;2.20;;;;;;;8.54;60.52;98574.28;5104931;28;20464;-63
2021/04/09 08:17:38;;;;;;;17.85;2.33;;;;;;;9.02;60.38;98583.22;5105313;28;20028;-63
2021/04/09 08:20:14;;;;;;;6.63;2.30;;;;;;;9.23;57.64;98601.56;5105125;28;20035;-63
2021/04/09 08:22:41;;;;;;;14.00;2.42;;;;;;;9.44;56.93;98591.34;5104944;28;20039;-63
2021/04/09 08:25:09;;;;;;;5.65;1.40;;;;;;;9.22;56.56;98599.84;5104978;28;20051;-62
2021/04/09 08:27:36;;;;;;;14.02;2.63;;;;;;;8.70;56.64;98594.53;5105011;28;20016;-62
2021/04/09 08:30:04;;;;;;;7.40;1.77;;;;;;;8.45;57.82;98614.16;5104423;28;20127;-62
2021/04/09 08:32:30;;;;;;;12.80;2.70;;;;;;;8.04;58.73;98606.69;5104762;28;20075;-63
2021/04/09 08:34:56;;;;;;;10.68;2.25;;;;;;;7.99;60.67;98614.56;5104841;28;20012;-62
2021/04/09 08:37:22;;;;;;;5.78;1.60;;;;;;;8.41;59.58;98605.66;5104565;28;20464;-63
2021/04/09 08:39:48;;;;;;;11.43;1.92;;;;;;;9.01;58.84;98604.78;5086451;28;20024;-63
2021/04/09 08:42:15;;;;;;;19.08;3.17;;;;;;;9.52;57.87;98609.25;5104461;28;20016;-63
2021/04/09 08:44:44;;;;;;;20.20;3.63;;;;;;;10.13;56.58;98615.81;5104204;28;20070;-62
2021/04/09 08:47:16;;;;;;;10.15;1.73;;;;;;;10.71;54.46;98608.59;5104649;28;20056;-62
2021/04/09 08:49:42;;;;;;;7.20;2.28;;;;;;;11.02;52.28;98596.16;5104608;28;20551;-63
2021/04/09 08:52:08;;;;;;;15.15;3.45;;;;;;;11.02;51.55;98601.38;5104627;28;20032;-63
2021/04/09 08:54:34;;;;;;;6.97;2.40;;;;;;;11.25;50.95;98617.75;5104545;28;20055;-62
2021/04/09 08:57:02;;;;;;;10.77;3.10;;;;;;;11.54;51.16;98597.56;5104471;28;20034;-62
2021/04/09 08:59:44;;;;;;;16.70;3.92;;;;;;;11.78;50.99;98620.81;5104073;28;20024;-62
2021/04/09 09:02:24;;;;;;;14.48;3.53;;;;;;;12.19;49.95;98612.16;5103817;28;20028;-62
2021/04/09 09:04:58;;;;;;;10.93;2.45;;;;;;;12.62;48.23;98622.41;5104380;28;20020;-62
2021/04/09 09:07:44;;;;;;;18.38;3.40;;;;;;;12.63;49.06;98631.94;5104386;28;20057;-65
2021/04/09 09:10:21;;;;;;;19.45;3.55;;;;;;;12.65;47.27;98611.03;5082774;28;20028;-62
2021/04/09 09:13:05;;;;;;;15.18;3.50;;;;;;;12.35;47.87;98619.28;5103990;28;20028;-62
2021/04/09 09:15:43;;;;;;;18.80;2.42;;;;;;;11.94;47.81;98617.56;5104120;28;20046;-60
2021/04/09 09:18:24;;;;;;;12.85;3.03;;;;;;;11.92;48.29;98635.00;5104403;28;20111;-61
2021/04/09 09:21:12;;;;;;;21.05;4.53;;;;;;;12.19;48.13;98634.75;5103829;28;20085;-62
2021/04/09 09:23:40;;;;;;;25.55;3.58;;;;;;;12.49;48.61;98644.72;5090251;28;20059;-61
2021/04/09 09:26:32;;;;;;;20.30;3.63;;;;;;;12.99;48.10;98658.06;5104311;28;20081;-61
2021/04/09 09:29:20;;;;;;;13.65;2.50;;;;;;;13.11;45.19;98654.06;5103908;28;20023;-61
2021/04/09 09:31:48;;;;;;;12.20;3.17;;;;;;;12.80;45.31;98658.09;5104190;28;20024;-60
2021/04/09 09:34:24;;;;;;;19.27;3.25;;;;;;;12.94;45.17;98652.25;5103943;28;20028;-61
2021/04/09 09:37:12;;;;;;;8.13;2.05;;;;;;;13.35;44.02;98659.88;5104241;28;20024;-62
2021/04/09 09:39:39;;;;;;;12.13;3.30;;;;;;;13.07;44.92;98655.09;5103935;28;20020;-61
2021/04/09 09:42:27;;;;;;;22.23;3.47;;;;;;;12.81;45.25;98650.19;5103865;28;20024;-62
2021/04/09 09:45:14;;;;;;;20.98;3.75;;;;;;;12.63;47.09;98663.16;5103734;28;20021;-61
2021/04/09 09:47:46;;;;;;;27.88;4.25;;;;;;;13.12;46.78;98674.84;5103590;28;20560;-60
2021/04/09 09:50:15;;;;;;;15.68;4.50;;;;;;;13.59;44.27;98662.25;5103096;28;20020;-61
2021/04/09 09:52:52;;;;;;;12.43;3.20;;;;;;;13.96;42.62;98653.50;5103076;28;20119;-62
2021/04/09 09:55:34;;;;;;;13.60;2.80;;;;;;;13.88;42.35;98667.75;5103014;28;20026;-61
2021/04/09 09:58:16;;;;;;;17.40;3.58;;;;;;;13.11;43.05;98654.06;5103720;28;20103;-61
2021/04/09 10:00:43;;;;;;;10.50;2.67;;;;;;;13.06;44.41;98669.91;5103209;28;20020;-61
2021/04/09 10:03:25;;;;;;;20.73;4.32;;;;;;;13.51;44.70;98662.59;5103563;28;20024;-61
2021/04/09 10:06:01;;;;;;;18.85;3.20;;;;;;;13.60;43.23;98678.72;5103514;28;20028;-61
2021/04/09 10:08:29;;;;;;;13.40;3.55;;;;;;;14.09;43.19;98678.03;5103542;28;20028;-61
2021/04/09 10:11:00;;;;;;;19.50;4.95;;;;;;;13.99;41.30;98687.25;5103862;28;20050;-62
2021/04/09 10:13:28;;;;;;;15.55;3.55;;;;;;;14.25;41.39;98690.28;5105084;28;20012;-62
2021/04/09 10:16:15;;;;;;;21.35;4.57;;;;;;;14.16;41.87;98685.53;5107189;28;20024;-62
2021/04/09 10:18:42;;;;;;;10.65;2.45;;;;;;;14.40;41.52;98677.38;5090548;28;20178;-62
2021/04/09 10:21:25;;;;;;;11.80;2.50;;;;;;;14.36;40.37;98674.09;5107529;28;20137;-63
2021/04/09 10:24:05;;;;;;;17.60;2.28;;;;;;;14.35;39.33;98638.44;5107017;28;20020;-63
2021/04/09 10:26:30;;;;;;;31.75;3.88;;;;;;;14.04;41.30;98687.03;5107408;28;20115;-62
2021/04/09 10:28:56;;;;;;;17.77;3.67;;;;;;;14.48;42.01;98680.44;5107078;28;20097;-62
2021/04/09 10:31:22;;;;;;;14.35;2.63;;;;;;;14.63;40.05;98686.63;5107026;28;20541;-63
2021/04/09 10:33:50;;;;;;;9.65;2.03;;;;;;;14.75;39.53;98692.94;5106933;28;20031;-62
2021/04/09 10:36:23;;;;;;;16.58;3.90;;;;;;;14.74;39.28;98707.75;5107094;28;20024;-63
2021/04/09 10:38:52;;;;;;;12.98;2.78;;;;;;;14.36;39.62;98701.03;5107011;28;20024;-62
2021/04/09 10:41:38;;;;;;;12.77;2.92;;;;;;;14.49;40.64;98708.22;5107146;28;20030;-62
2021/04/09 10:44:04;;;;;;;18.55;3.92;;;;;;;14.38;40.43;98734.88;5106523;28;20033;-62
2021/04/09 10:46:32;;;;;;;10.10;2.60;;;;;;;14.19;39.03;98719.31;5106786;28;20020;-62
2021/04/09 10:49:14;;;;;;;8.23;3.08;;;;;;;13.89;39.18;98726.00;5106921;28;20067;-63
2021/04/09 10:52:13;;;;;;;16.52;4.03;;;;;;;13.79;41.30;98711.69;5106985;28;20107;-60
2021/04/09 10:54:41;;;;;;;10.60;2.47;;;;;;;13.67;40.33;98734.88;5097855;28;20051;-61
2021/04/09 10:57:09;;;;;;;18.55;3.05;;;;;;;13.48;41.32;98720.06;5106715;28;20028;-61
2021/04/09 10:59:37;;;;;;;13.90;2.50;;;;;;;13.48;42.67;98722.66;5106593;28;20384;-61
2021/04/09 11:02:05;;;;;;;8.05;1.55;;;;;;;13.53;41.01;98724.25;5106549;28;20027;-61
2021/04/09 11:04:32;;;;;;;12.30;2.85;;;;;;;13.50;40.93;98731.31;5106454;28;20630;-62
2021/04/09 11:07:02;;;;;;;17.60;3.22;;;;;;;13.25;42.16;98739.41;5106867;28;20035;-61
2021/04/09 11:09:47;;;;;;;20.85;3.45;;;;;;;13.11;42.26;98737.44;5106566;28;20020;-61
2021/04/09 11:12:18;;;;;;;13.68;3.90;;;;;;;13.49;42.74;98733.94;5106364;28;20034;-62
2021/04/09 11:14:44;;;;;;;15.32;3.13;;;;;;;13.71;41.58;98739.00;5106011;28;20047;-63
2021/04/09 11:17:10;;;;;;;11.70;3.00;;;;;;;13.30;41.43;98747.00;5106613;28;20032;-60
2021/04/09 11:19:38;;;;;;;13.38;2.90;;;;;;;12.94;42.57;98731.22;5106253;28;20027;-62
2021/04/09 11:22:05;;;;;;;11.40;2.78;;;;;;;12.93;42.06;98749.53;5106409;28;20084;-62
2021/04/09 11:24:33;;;;;;;17.08;3.63;;;;;;;13.20;41.76;98757.00;5105202;28;20028;-63
2021/04/09 11:27:00;;;;;;;13.50;3.10;;;;;;;12.76;41.38;98766.75;5106163;28;20075;-62
2021/04/09 11:29:29;;;;;;;18.73;4.10;;;;;;;11.62;43.45;98758.38;5105741;28;20055;-62
2021/04/09 11:32:15;;;;;;;17.15;3.28;;;;;;;10.51;45.13;98749.44;5106050;28;20027;-61
2021/04/09 11:34:43;;;;;;;16.73;3.17;;;;;;;9.78;47.79;98786.34;5105869;28;20028;-62
2021/04/09 11:37:09;;;;;;;10.88;2.15;;;;;;;9.46;48.34;98790.75;5106341;28;20047;-62
2021/04/09 11:39:47;;;;;;;11.40;2.20;;;;;;;8.91;49.43;98785.38;5105927;28;20084;-63
2021/04/09 11:42:12;;;;;;;16.65;2.75;;;;;;;8.60;50.82;98800.91;5105956;28;20020;-62
2021/04/09 11:44:40;;;;;;;10.93;2.95;;;;;;;8.46;51.10;98780.53;5105458;28;20047;-62